Norfolk, Virginia
Traffic Map
Current Weather Conditions
Norfolk, Virginia
Clear
Clear
53°
Feels Like: 53°
Wind Chill: 53° Ceiling: Unl
Heat Index: 53° Visibility: 10mi
Dew Point: 43° Wind: 6mph
Humidity: 69% Direction: 130° (SE)
Pressure: 29.95in Gusts: 0mph
Raw Report DataKORF 201551Z 13005KT 10SM CLR 12/06 A2995 RMK AO2 SLP142 T01170061
Traffic Incident Summary
Active as of:
Severity:
Category:
InformationThere was an issue retrieving the traffic information for this location. Please try a different location or try again shortly.
Advertisements
Track Severe Weather on mobile